createdAt,value
2022-09-12T00:01:40.125Z,100512.75
2022-09-12T00:04:06.847Z,100513.59
2022-09-12T00:06:35.713Z,100510.13
2022-09-12T00:09:06.352Z,100508.81
2022-09-12T00:11:36.936Z,100511.44
2022-09-12T00:14:05.108Z,100511.97
2022-09-12T00:16:34.844Z,100506.19
2022-09-12T00:19:02.618Z,100513.16
2022-09-12T00:21:30.455Z,100509.09
2022-09-12T00:23:57.084Z,100504.56
2022-09-12T00:26:24.507Z,100499.84
2022-09-12T00:28:51.878Z,100496.28
2022-09-12T00:31:24.230Z,100499.69
2022-09-12T00:33:51.561Z,100496.44
2022-09-12T00:36:20.634Z,100496.53
2022-09-12T00:38:49.548Z,100496.53
2022-09-12T00:41:21.022Z,100502.00
2022-09-12T00:43:53.947Z,100493.91
2022-09-12T00:46:46.381Z,100491.59
2022-09-12T00:49:44.855Z,100493.56
2022-09-12T00:52:54.199Z,100493.78
2022-09-12T00:55:38.455Z,100492.03
2022-09-12T00:58:13.798Z,100490.25
2022-09-12T01:01:00.735Z,100490.25
2022-09-12T01:03:48.011Z,100490.00
2022-09-12T01:06:41.196Z,100487.44
2022-09-12T01:09:28.088Z,100494.81
2022-09-12T01:12:15.563Z,100488.31
2022-09-12T01:15:02.012Z,100477.59
2022-09-12T01:17:39.114Z,100480.53
2022-09-12T01:20:05.939Z,100486.31
2022-09-12T01:22:51.837Z,100478.84
2022-09-12T01:25:27.636Z,100476.13
2022-09-12T01:28:09.151Z,100474.50
2022-09-12T01:30:48.459Z,100467.63
2022-09-12T01:33:20.769Z,100473.91
2022-09-12T01:36:02.640Z,100465.19
2022-09-12T01:38:42.923Z,100474.94
2022-09-12T01:41:30.733Z,100464.34
2022-09-12T01:44:22.816Z,100465.34
2022-09-12T01:47:16.311Z,100470.38
2022-09-12T01:50:02.947Z,100461.13
2022-09-12T01:52:45.452Z,100461.81
2022-09-12T01:55:27.260Z,100464.59
2022-09-12T01:58:05.082Z,100455.16
2022-09-12T02:00:36.087Z,100451.91
2022-09-12T02:03:16.667Z,100450.78
2022-09-12T02:05:52.918Z,100448.00
2022-09-12T02:08:25.737Z,100444.75
2022-09-12T02:10:56.562Z,100451.91
2022-09-12T02:13:32.726Z,100441.97
2022-09-12T02:16:08.043Z,100444.34
2022-09-12T02:18:39.067Z,100444.91
2022-09-12T02:21:07.538Z,100437.88
2022-09-12T02:23:38.138Z,100434.50
2022-09-12T02:26:16.354Z,100439.22
2022-09-12T02:28:43.553Z,100435.41
2022-09-12T02:31:38.218Z,100445.75
2022-09-12T02:34:20.303Z,100446.69
2022-09-12T02:36:56.417Z,100438.88
2022-09-12T02:39:24.731Z,100434.50
2022-09-12T02:41:53.270Z,100438.56
2022-09-12T02:44:20.650Z,100432.00
2022-09-12T02:46:52.500Z,100433.22
2022-09-12T02:49:19.029Z,100433.13
2022-09-12T02:51:47.163Z,100436.50
2022-09-12T02:54:17.073Z,100428.19
2022-09-12T02:56:45.544Z,100423.63
2022-09-12T02:59:17.663Z,100426.34
2022-09-12T03:02:03.012Z,100427.19
2022-09-12T03:04:54.506Z,100432.25
2022-09-12T03:07:52.602Z,100419.78
2022-09-12T03:10:39.503Z,100424.09
2022-09-12T03:13:24.086Z,100423.47
2022-09-12T03:16:17.599Z,100419.00
2022-09-12T03:18:58.029Z,100427.00
2022-09-12T03:21:41.910Z,100428.91
2022-09-12T03:24:11.808Z,100422.81
2022-09-12T03:27:02.720Z,100430.50
2022-09-12T03:29:31.087Z,100425.56
2022-09-12T03:31:59.055Z,100419.63
2022-09-12T03:34:27.919Z,100416.53
2022-09-12T03:36:55.407Z,100421.56
2022-09-12T03:39:24.427Z,100424.03
2022-09-12T03:41:51.780Z,100419.72
2022-09-12T03:44:18.990Z,100414.75
2022-09-12T03:46:45.783Z,100413.69
2022-09-12T03:49:13.129Z,100417.16
2022-09-12T03:51:39.935Z,100417.59
2022-09-12T03:54:07.124Z,100412.06
2022-09-12T03:56:34.757Z,100409.16
2022-09-12T03:59:02.066Z,100408.66
2022-09-12T04:01:28.466Z,100412.16
2022-09-12T04:03:55.132Z,100413.53
2022-09-12T04:06:22.880Z,100412.91
2022-09-12T04:08:52.080Z,100412.00
2022-09-12T04:11:21.132Z,100407.19
2022-09-12T04:13:48.019Z,100410.50
2022-09-12T04:16:17.708Z,100411.38
2022-09-12T04:18:45.102Z,100405.41
2022-09-12T04:21:17.906Z,100409.53
2022-09-12T04:23:44.767Z,100406.81
2022-09-12T04:26:13.639Z,100412.84
2022-09-12T04:28:40.576Z,100413.06
2022-09-12T04:31:13.359Z,100418.38
2022-09-12T04:33:40.041Z,100413.91
2022-09-12T04:36:09.021Z,100413.34
2022-09-12T04:38:36.385Z,100417.22
2022-09-12T04:41:16.564Z,100418.91
2022-09-12T04:43:43.579Z,100417.22
2022-09-12T04:46:11.398Z,100416.97
2022-09-12T04:48:38.007Z,100416.38
2022-09-12T04:51:21.202Z,100419.06
2022-09-12T04:53:50.318Z,100413.94
2022-09-12T04:56:17.479Z,100413.16
2022-09-12T04:58:44.261Z,100417.56
2022-09-12T05:01:14.442Z,100410.69
2022-09-12T05:03:45.229Z,100421.16
2022-09-12T05:06:14.362Z,100418.75
2022-09-12T05:08:41.458Z,100410.06
2022-09-12T05:11:11.546Z,100406.38
2022-09-12T05:13:38.827Z,100408.69
2022-09-12T05:16:06.753Z,100407.06
2022-09-12T05:18:35.244Z,100416.69
2022-09-12T05:21:04.067Z,100420.38
2022-09-12T05:23:31.068Z,100417.69
2022-09-12T05:25:59.489Z,100410.75
2022-09-12T05:28:30.369Z,100410.53
2022-09-12T05:31:08.312Z,100408.78
2022-09-12T05:33:36.591Z,100414.06
2022-09-12T05:36:06.337Z,100410.53
2022-09-12T05:38:36.463Z,100414.06
2022-09-12T05:41:16.977Z,100417.47
2022-09-12T05:43:46.227Z,100417.28
2022-09-12T05:46:19.058Z,100416.63
2022-09-12T05:48:47.371Z,100416.22
2022-09-12T05:51:19.076Z,100415.28
2022-09-12T05:53:47.736Z,100419.31
2022-09-12T05:56:17.188Z,100414.63
2022-09-12T05:58:46.861Z,100418.84
2022-09-12T06:01:18.161Z,100416.47
2022-09-12T06:03:49.330Z,100419.00
2022-09-12T06:06:16.967Z,100418.84
2022-09-12T06:08:46.689Z,100423.03
2022-09-12T06:11:18.916Z,100419.72
2022-09-12T06:13:45.659Z,100419.94
2022-09-12T06:16:18.257Z,100424.88
2022-09-12T06:18:50.412Z,100427.41
2022-09-12T06:21:17.106Z,100422.63
2022-09-12T06:23:45.726Z,100415.69
2022-09-12T06:26:12.843Z,100414.84
2022-09-12T06:28:41.701Z,100416.53
2022-09-12T06:31:12.153Z,100414.56
2022-09-12T06:33:40.945Z,100407.78
2022-09-12T06:36:12.543Z,100411.78
2022-09-12T06:38:40.688Z,100404.19
2022-09-12T06:41:12.175Z,100407.81
2022-09-12T06:43:40.551Z,100396.84
2022-09-12T06:46:08.107Z,100396.41
2022-09-12T06:48:38.306Z,100397.78
2022-09-12T06:51:13.501Z,100400.22
2022-09-12T06:53:41.071Z,100395.13
2022-09-12T06:56:11.931Z,100402.19
2022-09-12T06:58:38.953Z,100406.56
2022-09-12T07:01:15.628Z,100404.03
2022-09-12T07:03:43.459Z,100408.66
2022-09-12T07:06:15.613Z,100416.53
2022-09-12T07:08:42.962Z,100417.63
2022-09-12T07:11:13.876Z,100417.03
2022-09-12T07:13:41.656Z,100417.09
2022-09-12T07:16:10.184Z,100415.56
2022-09-12T07:18:38.564Z,100410.38
2022-09-12T07:21:08.006Z,100411.63
2022-09-12T07:23:34.858Z,100415.38
2022-09-12T07:26:02.137Z,100415.41
2022-09-12T07:28:30.979Z,100409.72
2022-09-12T07:30:58.661Z,100420.47
2022-09-12T07:33:28.341Z,100416.69
2022-09-12T07:35:55.284Z,100420.41
2022-09-12T07:38:21.825Z,100415.88
2022-09-12T07:40:48.384Z,100411.75
2022-09-12T07:43:15.007Z,100419.84
2022-09-12T07:45:42.275Z,100415.22
2022-09-12T07:48:09.569Z,100408.09
2022-09-12T07:50:36.910Z,100409.72
2022-09-12T07:53:04.570Z,100406.53
2022-09-12T07:55:31.540Z,100411.16
2022-09-12T07:57:58.790Z,100418.06
2022-09-12T08:00:25.521Z,100415.69
2022-09-12T08:02:53.292Z,100415.19
2022-09-12T08:05:23.213Z,100406.31
2022-09-12T08:07:49.687Z,100409.56
2022-09-12T08:10:16.182Z,100413.94
2022-09-12T08:12:43.163Z,100405.34
2022-09-12T08:15:09.861Z,100413.31
2022-09-12T08:17:36.641Z,100417.84
2022-09-12T08:20:04.155Z,100420.13
2022-09-12T08:22:31.323Z,100415.69
2022-09-12T08:24:58.553Z,100418.16
2022-09-12T08:27:25.660Z,100412.16
2022-09-12T08:29:53.664Z,100409.25
2022-09-12T08:32:20.489Z,100408.72
2022-09-12T08:34:47.115Z,100411.72
2022-09-12T08:37:13.530Z,100411.63
2022-09-12T08:39:39.968Z,100408.25
2022-09-12T08:42:06.993Z,100400.44
2022-09-12T08:45:02.581Z,100394.22
2022-09-12T08:47:33.782Z,100392.38
2022-09-12T08:50:12.507Z,100399.25
2022-09-12T08:52:50.321Z,100404.44
2022-09-12T08:55:44.461Z,100407.69
2022-09-12T08:58:24.082Z,100406.75
2022-09-12T09:00:50.834Z,100397.00
2022-09-12T09:03:45.770Z,100401.19
2022-09-12T09:06:36.468Z,100406.03
2022-09-12T09:09:08.435Z,100396.75
2022-09-12T09:11:37.788Z,100404.75
2022-09-12T09:14:41.758Z,100400.31
2022-09-12T09:17:20.093Z,100389.88
2022-09-12T09:19:52.712Z,100388.69
2022-09-12T09:22:33.126Z,100394.22
2022-09-12T09:25:06.038Z,100387.59
2022-09-12T09:27:41.887Z,100387.59
2022-09-12T09:30:17.842Z,100393.81
2022-09-12T09:32:49.726Z,100393.41
2022-09-12T09:35:36.192Z,100396.00
2022-09-12T09:38:34.496Z,100399.34
2022-09-12T09:41:21.266Z,100396.06
2022-09-12T09:43:48.498Z,100394.09
2022-09-12T09:46:15.114Z,100398.50
2022-09-12T09:48:46.145Z,100396.63
2022-09-12T09:51:15.279Z,100392.22
2022-09-12T09:53:48.295Z,100394.41
2022-09-12T09:56:30.753Z,100383.47
2022-09-12T09:58:57.238Z,100382.78
2022-09-12T10:01:24.715Z,100383.03
2022-09-12T10:03:55.962Z,100374.34
2022-09-12T10:06:34.501Z,100382.78
2022-09-12T10:09:26.971Z,100380.00
2022-09-12T10:11:55.846Z,100385.28
2022-09-12T10:14:40.402Z,100387.00
2022-09-12T10:17:34.330Z,100371.13
2022-09-12T10:20:20.541Z,100372.38
2022-09-12T10:22:48.907Z,100370.53
2022-09-12T10:25:18.660Z,100373.25
2022-09-12T10:27:53.437Z,100370.34
2022-09-12T10:30:21.715Z,100362.69
2022-09-12T10:32:54.394Z,100362.69
2022-09-12T10:35:24.371Z,100358.09
2022-09-12T10:38:00.015Z,100357.31
2022-09-12T10:40:30.971Z,100357.50
2022-09-12T10:42:59.600Z,100363.94
2022-09-12T10:45:30.970Z,100354.41
2022-09-12T10:48:04.158Z,100358.38
2022-09-12T10:50:43.401Z,100361.41
2022-09-12T10:53:13.292Z,100353.25
2022-09-12T10:55:42.694Z,100345.88
2022-09-12T10:58:29.025Z,100342.00
2022-09-12T11:01:23.544Z,100343.25
2022-09-12T11:04:06.091Z,100341.34
2022-09-12T11:07:11.866Z,100327.56
2022-09-12T11:09:47.771Z,100329.53
2022-09-12T11:12:26.776Z,100322.50
2022-09-12T11:15:07.861Z,100321.81
2022-09-12T11:18:16.100Z,100315.94
2022-09-12T11:20:58.869Z,100316.44
2022-09-12T11:23:37.432Z,100314.31
2022-09-12T11:26:22.985Z,100307.41
2022-09-12T11:29:16.476Z,100307.13
2022-09-12T11:32:01.681Z,100312.53
2022-09-12T11:35:01.735Z,100306.25
2022-09-12T11:37:52.701Z,100307.63
2022-09-12T11:40:20.349Z,100309.81
2022-09-12T11:42:51.535Z,100303.34
2022-09-12T11:45:21.074Z,100305.94
2022-09-12T11:47:55.313Z,100310.97
2022-09-12T11:50:27.093Z,100304.63
2022-09-12T11:52:57.851Z,100300.34
2022-09-12T11:55:29.805Z,100306.47
2022-09-12T11:57:58.682Z,100298.91
2022-09-12T12:00:44.273Z,100292.06
2022-09-12T12:03:23.616Z,100286.91
2022-09-12T12:05:57.740Z,100284.13
2022-09-12T12:08:30.883Z,100287.91
2022-09-12T12:11:02.741Z,100282.50
2022-09-12T12:13:43.082Z,100273.28
2022-09-12T12:16:40.062Z,100278.13
2022-09-12T12:19:15.659Z,100272.81
2022-09-12T12:21:47.776Z,100267.47
2022-09-12T12:24:25.155Z,100264.00
2022-09-12T12:26:55.840Z,100261.84
2022-09-12T12:29:22.380Z,100255.19
2022-09-12T12:32:03.963Z,100257.13
2022-09-12T12:34:38.161Z,100255.53
2022-09-12T12:37:20.073Z,100248.72
2022-09-12T12:39:53.781Z,100243.09
2022-09-12T12:42:35.741Z,100245.53
2022-09-12T12:45:04.435Z,100238.44
2022-09-12T12:47:40.284Z,100231.50
2022-09-12T12:50:16.050Z,100228.13
2022-09-12T12:53:22.591Z,100220.50
2022-09-12T12:55:53.153Z,100216.78
2022-09-12T12:58:37.146Z,100214.38
2022-09-12T13:01:09.639Z,100213.41
2022-09-12T13:03:38.259Z,100209.00
2022-09-12T13:06:21.408Z,100213.75
2022-09-12T13:09:00.228Z,100218.09
2022-09-12T13:11:33.861Z,100214.47
2022-09-12T13:14:27.501Z,100202.19
2022-09-12T13:16:58.476Z,100208.47
2022-09-12T13:19:32.368Z,100209.94
2022-09-12T13:22:06.554Z,100201.31
2022-09-12T13:24:34.430Z,100204.53
2022-09-12T13:27:02.075Z,100196.63
2022-09-12T13:29:29.026Z,100198.88
2022-09-12T13:32:01.124Z,100187.75
2022-09-12T13:34:35.005Z,100188.97
2022-09-12T13:37:16.688Z,100192.00
2022-09-12T13:39:54.171Z,100189.00
2022-09-12T13:42:38.329Z,100181.28
2022-09-12T13:45:17.325Z,100185.44
2022-09-12T13:47:51.882Z,100185.84
2022-09-12T13:50:24.465Z,100179.44
2022-09-12T13:52:58.382Z,100165.78
2022-09-12T13:55:37.375Z,100170.34
2022-09-12T13:58:06.177Z,100163.06
2022-09-12T14:00:34.813Z,100163.69
2022-09-12T14:03:20.991Z,100155.06
2022-09-12T14:05:56.876Z,100160.47
2022-09-12T14:08:23.840Z,100155.09
2022-09-12T14:10:50.980Z,100152.47
2022-09-12T14:13:21.304Z,100152.19
2022-09-12T14:15:52.549Z,100148.81
2022-09-12T14:18:28.530Z,100144.41
2022-09-12T14:21:01.402Z,100141.53
2022-09-12T14:23:30.524Z,100143.16
2022-09-12T14:25:59.010Z,100146.47
2022-09-12T14:28:30.108Z,100143.31
2022-09-12T14:31:18.931Z,100142.56
2022-09-12T14:33:51.269Z,100140.50
2022-09-12T14:36:28.360Z,100141.34
2022-09-12T14:39:02.195Z,100138.84
2022-09-12T14:41:33.369Z,100129.53
2022-09-12T14:44:04.138Z,100133.25
2022-09-12T14:46:35.139Z,100139.06
2022-09-12T14:49:10.374Z,100131.91
2022-09-12T14:51:49.384Z,100123.47
2022-09-12T14:54:30.186Z,100128.63
2022-09-12T14:56:59.646Z,100121.38
2022-09-12T14:59:28.260Z,100116.25
2022-09-12T15:02:13.993Z,100113.13
2022-09-12T15:04:42.976Z,100106.44
2022-09-12T15:07:25.934Z,100107.50
2022-09-12T15:09:53.044Z,100101.84
2022-09-12T15:12:19.485Z,100105.69
2022-09-12T15:14:45.958Z,100098.44
2022-09-12T15:17:12.498Z,100098.50
2022-09-12T15:19:39.126Z,100094.63
2022-09-12T15:22:05.723Z,100085.81
2022-09-12T15:24:32.379Z,100083.50
2022-09-12T15:26:58.963Z,100088.25
2022-09-12T15:29:25.343Z,100089.53
2022-09-12T15:31:51.779Z,100088.88
2022-09-12T15:34:19.609Z,100087.66
2022-09-12T15:36:46.050Z,100085.00
2022-09-12T15:39:13.202Z,100086.13
2022-09-12T15:41:39.742Z,100080.28
2022-09-12T15:44:08.140Z,100077.91
2022-09-12T15:46:34.675Z,100075.81
2022-09-12T15:49:01.230Z,100079.97
2022-09-12T15:51:27.737Z,100071.50
2022-09-12T15:53:54.646Z,100069.34
2022-09-12T15:56:22.185Z,100070.38
2022-09-12T15:58:58.706Z,100062.03
2022-09-12T16:01:27.177Z,100060.75
2022-09-12T16:03:53.784Z,100065.38
2022-09-12T16:06:20.263Z,100063.69
2022-09-12T16:08:46.755Z,100060.47
2022-09-12T16:11:31.474Z,100063.31
2022-09-12T16:13:58.256Z,100056.16
2022-09-12T16:16:24.796Z,100062.31
2022-09-12T16:18:51.240Z,100061.63
2022-09-12T16:21:17.820Z,100057.06
2022-09-12T16:23:45.671Z,100051.16
2022-09-12T16:26:12.300Z,100050.97
2022-09-12T16:28:39.134Z,100046.38
2022-09-12T16:31:07.363Z,100045.41
2022-09-12T16:33:34.884Z,100044.75
2022-09-12T16:36:07.287Z,100043.53
2022-09-12T16:38:34.849Z,100047.25
2022-09-12T16:41:06.470Z,100043.53
2022-09-12T16:43:34.916Z,100035.16
2022-09-12T16:46:02.967Z,100037.06
2022-09-12T16:48:29.999Z,100040.34
2022-09-12T16:50:58.480Z,100047.34
2022-09-12T16:53:25.050Z,100054.81
2022-09-12T16:55:51.576Z,100052.72
2022-09-12T16:58:17.998Z,100050.97
2022-09-12T17:00:44.667Z,100051.56
2022-09-12T17:03:11.453Z,100045.94
2022-09-12T17:05:38.277Z,100048.69
2022-09-12T17:08:05.131Z,100054.84
2022-09-12T17:10:32.563Z,100047.84
2022-09-12T17:12:59.561Z,100050.97
2022-09-12T17:15:26.102Z,100044.16
2022-09-12T17:17:52.596Z,100046.97
2022-09-12T17:20:19.620Z,100042.38
2022-09-12T17:22:46.359Z,100040.63
2022-09-12T17:25:12.916Z,100040.31
2022-09-12T17:27:39.429Z,100044.31
2022-09-12T17:30:06.964Z,100042.97
2022-09-12T17:32:33.687Z,100049.16
2022-09-12T17:35:00.153Z,100053.31
2022-09-12T17:37:26.571Z,100038.94
2022-09-12T17:39:53.106Z,100049.75
2022-09-12T17:42:21.695Z,100029.44
2022-09-12T17:44:48.197Z,100042.25
2022-09-12T17:47:14.715Z,100044.97
2022-09-12T17:49:41.164Z,100051.34
2022-09-12T17:52:08.124Z,100049.03
2022-09-12T17:54:34.750Z,100050.78
2022-09-12T17:57:01.177Z,100060.59
2022-09-12T17:59:27.673Z,100059.56
2022-09-12T18:02:12.774Z,100057.41
2022-09-12T18:04:41.150Z,100061.66
2022-09-12T18:07:08.268Z,100067.66
2022-09-12T18:09:36.138Z,100054.66
2022-09-12T18:12:02.807Z,100068.13
2022-09-12T18:14:29.299Z,100070.59
2022-09-12T18:17:00.169Z,100067.56
2022-09-12T18:19:27.682Z,100065.28
2022-09-12T18:21:56.051Z,100066.25
2022-09-12T18:24:22.732Z,100069.16
2022-09-12T18:26:49.430Z,100068.75
2022-09-12T18:29:16.944Z,100066.81
2022-09-12T18:31:44.710Z,100068.63
2022-09-12T18:34:13.635Z,100066.53
2022-09-12T18:36:41.838Z,100072.78
2022-09-12T18:39:08.738Z,100068.69
2022-09-12T18:41:35.423Z,100067.00
2022-09-12T18:44:02.545Z,100059.69
2022-09-12T18:46:31.262Z,100060.84
2022-09-12T18:48:59.009Z,100066.78
2022-09-12T18:51:34.765Z,100073.31
2022-09-12T18:54:12.661Z,100074.28
2022-09-12T18:56:40.832Z,100069.59
2022-09-12T18:59:07.671Z,100075.94
2022-09-12T19:01:37.172Z,100065.50
2022-09-12T19:04:05.028Z,100059.75
2022-09-12T19:06:34.626Z,100055.72
2022-09-12T19:09:06.711Z,100057.97
2022-09-12T19:11:35.080Z,100069.13
2022-09-12T19:14:02.030Z,100059.59
2022-09-12T19:16:28.798Z,100065.78
2022-09-12T19:18:56.538Z,100067.19
2022-09-12T19:21:27.084Z,100063.94
2022-09-12T19:23:57.770Z,100058.16
2022-09-12T19:26:24.688Z,100064.13
2022-09-12T19:28:51.429Z,100068.97
2022-09-12T19:31:20.022Z,100065.59
2022-09-12T19:33:47.195Z,100073.13
2022-09-12T19:36:41.347Z,100069.28
2022-09-12T19:39:05.229Z,100070.72
2022-09-12T19:41:31.901Z,100056.03
2022-09-12T19:43:58.957Z,100063.25
2022-09-12T19:46:26.143Z,100056.28
2022-09-12T19:48:53.383Z,100057.00
2022-09-12T19:51:21.298Z,100046.69
2022-09-12T19:53:50.034Z,100047.56
2022-09-12T19:56:16.732Z,100045.97
2022-09-12T19:58:45.888Z,100043.09
2022-09-12T20:01:15.610Z,100042.28
2022-09-12T20:03:43.014Z,100043.44
2022-09-12T20:06:13.479Z,100045.75
2022-09-12T20:08:42.092Z,100042.50
2022-09-12T20:11:09.116Z,100035.41
2022-09-12T20:13:35.641Z,100030.66
2022-09-12T20:16:21.411Z,100025.19
2022-09-12T20:18:53.717Z,100029.63
2022-09-12T20:21:24.855Z,100023.56
2022-09-12T20:23:51.271Z,100025.03
2022-09-12T20:26:20.056Z,100022.00
2022-09-12T20:28:46.548Z,100022.84
2022-09-12T20:31:15.820Z,100018.63
2022-09-12T20:33:42.793Z,100022.81
2022-09-12T20:36:12.238Z,100016.09
2022-09-12T20:38:39.060Z,100014.75
2022-09-12T20:41:08.353Z,100026.47
2022-09-12T20:43:35.405Z,100028.75
2022-09-12T20:46:10.227Z,100020.59
2022-09-12T20:48:39.815Z,100022.50
2022-09-12T20:51:06.752Z,100015.31
2022-09-12T20:53:35.318Z,100009.72
2022-09-12T20:56:03.428Z,100004.53
2022-09-12T20:58:30.028Z,100006.88
2022-09-12T21:00:57.160Z,100004.22
2022-09-12T21:03:25.285Z,100004.31
2022-09-12T21:05:52.127Z,99997.59
2022-09-12T21:08:18.843Z,99992.09
2022-09-12T21:10:45.341Z,99985.03
2022-09-12T21:13:13.193Z,99982.34
2022-09-12T21:15:41.018Z,99973.41
2022-09-12T21:18:08.015Z,99970.25
2022-09-12T21:20:34.865Z,99970.72
2022-09-12T21:23:01.395Z,99966.28
2022-09-12T21:25:29.248Z,99969.09
2022-09-12T21:27:55.870Z,99973.25
2022-09-12T21:30:22.877Z,99970.09
2022-09-12T21:32:49.582Z,99969.47
2022-09-12T21:35:16.363Z,99965.88
2022-09-12T21:37:43.142Z,99969.09
2022-09-12T21:40:10.087Z,99978.34
2022-09-12T21:42:37.163Z,99977.50
2022-09-12T21:45:03.894Z,99977.28
2022-09-12T21:47:30.842Z,99979.84
2022-09-12T21:49:58.298Z,99983.50
2022-09-12T21:52:25.032Z,99979.53
2022-09-12T21:54:51.678Z,99990.84
2022-09-12T21:57:18.110Z,99982.44
2022-09-12T21:59:44.571Z,99982.94
2022-09-12T22:02:12.290Z,99985.59
2022-09-12T22:04:38.771Z,99985.78
2022-09-12T22:07:05.769Z,99980.22
2022-09-12T22:09:34.480Z,99974.19
2022-09-12T22:12:02.752Z,99976.63
2022-09-12T22:14:29.788Z,99971.47
2022-09-12T22:16:56.964Z,99977.03
2022-09-12T22:19:23.777Z,99974.31
2022-09-12T22:22:09.569Z,99972.88
2022-09-12T22:24:36.100Z,99974.72
2022-09-12T22:27:05.525Z,99977.66
2022-09-12T22:29:32.772Z,99979.56
2022-09-12T22:32:00.045Z,99972.50
2022-09-12T22:34:29.554Z,99972.50
2022-09-12T22:36:56.607Z,99975.41
2022-09-12T22:39:23.862Z,99978.41
2022-09-12T22:41:50.809Z,99969.69
2022-09-12T22:44:18.007Z,99979.69
2022-09-12T22:46:45.265Z,99980.84
2022-09-12T22:49:11.797Z,99970.31
2022-09-12T22:51:39.065Z,99973.88
2022-09-12T22:54:06.194Z,99971.56
2022-09-12T22:56:33.351Z,99965.34
2022-09-12T22:58:59.801Z,99956.81
2022-09-12T23:01:26.522Z,99956.34
2022-09-12T23:03:53.241Z,99956.97
2022-09-12T23:06:19.688Z,99945.09
2022-09-12T23:08:46.621Z,99942.31
2022-09-12T23:11:15.999Z,99943.81
2022-09-12T23:13:47.754Z,99940.97
2022-09-12T23:16:23.177Z,99936.94
2022-09-12T23:18:50.380Z,99937.47
2022-09-12T23:21:19.157Z,99942.75
2022-09-12T23:23:46.417Z,99940.75
2022-09-12T23:26:15.861Z,99931.59
2022-09-12T23:28:48.630Z,99941.63
2022-09-12T23:31:16.947Z,99935.28
2022-09-12T23:33:44.196Z,99934.78
2022-09-12T23:36:14.458Z,99929.41
2022-09-12T23:38:43.612Z,99933.50
2022-09-12T23:41:11.814Z,99940.16
2022-09-12T23:43:38.848Z,99939.19
2022-09-12T23:46:06.758Z,99948.16
2022-09-12T23:48:34.513Z,99948.78
2022-09-12T23:51:02.211Z,99952.16
2022-09-12T23:53:29.451Z,99950.34
2022-09-12T23:55:56.809Z,99957.13
2022-09-12T23:58:24.128Z,99958.06
